Time;durP1;ratioP1;P1;durP2;ratioP2;P2;SDS_P1;SDS_P2;PMS_P1;PMS_P2;Temp;Humidity;BMP_temperature;BMP_pressure;BME280_temperature;BME280_humidity;BME280_pressure;Samples;Min_cycle;Max_cycle;Signal;HPM_P1;HPM_P2
2021/05/07 00:00:41;;;;;;;4.32;3.72;;;7.00;99.90;;;;;;5111410;28;20199;-69
2021/05/07 00:03:08;;;;;;;4.75;3.60;;;7.10;99.90;;;;;;5112334;28;20240;-67
2021/05/07 00:05:38;;;;;;;8.55;4.60;;;7.10;99.90;;;;;;5111303;28;20171;-67
2021/05/07 00:08:06;;;;;;;8.57;3.30;;;7.10;99.90;;;;;;5112460;28;20202;-68
2021/05/07 00:10:33;;;;;;;4.60;4.05;;;7.10;99.90;;;;;;5112237;28;20574;-67
2021/05/07 00:13:00;;;;;;;6.18;3.78;;;7.00;99.90;;;;;;5111999;28;20249;-67
2021/05/07 00:15:27;;;;;;;6.93;3.45;;;6.90;99.90;;;;;;5116730;28;20524;-70
2021/05/07 00:17:55;;;;;;;4.18;3.60;;;6.90;99.90;;;;;;5116923;28;20182;-68
2021/05/07 00:20:23;;;;;;;4.93;3.60;;;7.00;99.90;;;;;;5118394;28;20171;-68
2021/05/07 00:22:50;;;;;;;4.80;4.15;;;6.90;99.90;;;;;;5117394;28;20216;-68
2021/05/07 00:25:23;;;;;;;5.53;4.20;;;7.00;99.90;;;;;;5111482;28;20583;-68
2021/05/07 00:28:01;;;;;;;4.82;4.22;;;7.00;99.90;;;;;;5111478;28;20186;-68
2021/05/07 00:30:29;;;;;;;5.22;3.33;;;6.80;99.90;;;;;;5110644;28;20175;-67
2021/05/07 00:32:57;;;;;;;5.32;3.63;;;6.90;99.90;;;;;;5110425;28;20207;-67
2021/05/07 00:35:26;;;;;;;5.53;3.80;;;6.90;99.90;;;;;;5110787;28;20228;-69
2021/05/07 00:37:54;;;;;;;6.50;3.95;;;6.90;99.90;;;;;;5111384;28;20175;-67
2021/05/07 00:40:21;;;;;;;9.00;3.72;;;7.00;99.90;;;;;;5110768;28;20209;-68
2021/05/07 00:42:49;;;;;;;9.50;4.22;;;7.10;99.90;;;;;;5111659;28;20210;-72
2021/05/07 00:45:17;;;;;;;6.43;4.15;;;7.20;99.90;;;;;;5115712;28;20465;-68
2021/05/07 00:47:47;;;;;;;5.60;4.00;;;7.20;99.90;;;;;;5116075;28;20191;-68
2021/05/07 00:50:17;;;;;;;6.22;3.78;;;7.20;99.90;;;;;;5113703;28;20191;-68
2021/05/07 00:52:44;;;;;;;5.63;3.95;;;7.10;99.90;;;;;;5115216;28;20255;-67
2021/05/07 00:55:13;;;;;;;6.43;4.18;;;7.10;99.90;;;;;;5115950;28;20178;-68
2021/05/07 00:57:41;;;;;;;4.63;3.22;;;7.10;99.90;;;;;;5114105;22;20227;-71
2021/05/07 01:00:09;;;;;;;5.47;3.80;;;7.10;99.90;;;;;;5092399;28;20195;-71
2021/05/07 01:02:38;;;;;;;6.10;4.90;;;7.10;99.90;;;;;;5105043;28;20211;-71
2021/05/07 01:05:07;;;;;;;5.40;4.85;;;7.00;99.90;;;;;;5114153;28;20262;-71
2021/05/07 01:07:36;;;;;;;9.35;4.75;;;7.00;99.90;;;;;;5112916;28;20655;-71
2021/05/07 01:10:06;;;;;;;6.70;4.90;;;7.00;99.90;;;;;;5114306;28;20183;-71
2021/05/07 01:12:34;;;;;;;4.20;3.67;;;7.00;99.90;;;;;;5114110;28;20582;-71
2021/05/07 01:15:05;;;;;;;5.90;3.95;;;6.80;99.90;;;;;;5114284;28;20270;-70
2021/05/07 01:17:37;;;;;;;4.72;3.97;;;6.80;99.90;;;;;;5112702;28;20206;-70
2021/05/07 01:20:11;;;;;;;4.45;3.75;;;6.80;99.90;;;;;;5112578;28;20211;-72
2021/05/07 01:22:40;;;;;;;4.85;4.38;;;6.80;99.90;;;;;;5112152;28;20226;-70
2021/05/07 01:25:09;;;;;;;3.70;3.38;;;6.90;99.90;;;;;;5113784;28;20621;-72
2021/05/07 01:27:38;;;;;;;4.95;4.22;;;6.90;99.90;;;;;;5112034;28;20560;-71
2021/05/07 01:30:09;;;;;;;5.38;4.20;;;6.90;99.90;;;;;;5113748;28;20653;-70
2021/05/07 01:32:38;;;;;;;4.32;3.65;;;6.90;99.90;;;;;;5113069;28;20213;-72
2021/05/07 01:35:08;;;;;;;4.50;3.47;;;6.90;99.90;;;;;;5113903;28;20544;-70
2021/05/07 01:37:37;;;;;;;4.72;4.20;;;6.80;99.90;;;;;;5113526;28;20232;-71
2021/05/07 01:40:15;;;;;;;5.53;4.07;;;6.80;99.90;;;;;;5113425;28;20178;-70
2021/05/07 01:42:43;;;;;;;4.50;4.10;;;6.80;99.90;;;;;;5111178;28;20217;-71
2021/05/07 01:45:12;;;;;;;5.10;3.95;;;6.80;99.90;;;;;;5111742;28;20557;-71
2021/05/07 01:47:39;;;;;;;7.68;4.43;;;6.80;99.90;;;;;;5111618;28;20212;-71
2021/05/07 01:50:10;;;;;;;5.07;4.57;;;6.70;99.90;;;;;;5113271;28;20190;-71
2021/05/07 01:52:37;;;;;;;4.20;3.58;;;6.50;99.90;;;;;;5128522;27;20229;-71
2021/05/07 01:55:07;;;;;;;5.13;3.85;;;6.50;99.90;;;;;;5111141;28;20182;-69
2021/05/07 01:57:37;;;;;;;7.78;5.10;;;6.40;99.90;;;;;;5112464;28;20557;-71
2021/05/07 02:00:07;;;;;;;6.10;4.45;;;6.40;99.90;;;;;;5112760;28;20666;-70
2021/05/07 02:02:40;;;;;;;5.03;4.20;;;6.50;99.90;;;;;;5112297;28;20285;-69
2021/05/07 02:05:17;;;;;;;4.93;4.43;;;6.50;99.90;;;;;;5111218;28;20241;-69
2021/05/07 02:07:46;;;;;;;7.25;4.35;;;6.50;99.90;;;;;;5111028;28;20222;-70
2021/05/07 02:10:15;;;;;;;5.43;4.25;;;6.50;99.90;;;;;;5113948;28;20179;-71
2021/05/07 02:12:43;;;;;;;5.18;4.68;;;6.60;99.90;;;;;;5113463;28;20584;-71
2021/05/07 02:15:13;;;;;;;5.78;4.47;;;6.60;99.90;;;;;;5115326;28;20179;-71
2021/05/07 02:17:42;;;;;;;5.38;3.78;;;6.60;99.90;;;;;;5113285;28;20741;-70
2021/05/07 02:20:13;;;;;;;6.57;4.75;;;6.60;99.90;;;;;;5114470;28;20171;-71
2021/05/07 02:22:42;;;;;;;4.78;3.92;;;6.50;99.90;;;;;;5111377;28;20215;-71
2021/05/07 02:25:11;;;;;;;4.40;3.92;;;6.50;99.90;;;;;;5112394;28;20293;-71
2021/05/07 02:27:38;;;;;;;5.18;3.83;;;6.50;99.90;;;;;;5111775;28;20248;-73
2021/05/07 02:30:08;;;;;;;4.93;3.88;;;6.40;99.90;;;;;;5111899;28;20195;-71
2021/05/07 02:32:36;;;;;;;4.50;3.67;;;6.40;99.90;;;;;;5112361;28;20221;-71
2021/05/07 02:35:05;;;;;;;4.72;4.18;;;6.40;99.90;;;;;;5111210;28;20186;-70
2021/05/07 02:37:32;;;;;;;4.03;3.63;;;6.40;99.90;;;;;;5112183;28;20182;-70
2021/05/07 02:40:00;;;;;;;6.38;4.03;;;6.40;99.90;;;;;;5112023;28;20209;-69
2021/05/07 02:42:28;;;;;;;11.80;4.03;;;6.40;99.90;;;;;;5110235;28;20298;-70
2021/05/07 02:44:55;;;;;;;5.53;3.70;;;6.40;99.90;;;;;;5110913;28;20567;-71
2021/05/07 02:47:23;;;;;;;6.70;4.18;;;6.30;99.90;;;;;;5110582;28;20772;-70
2021/05/07 02:49:50;;;;;;;7.75;3.80;;;6.30;99.90;;;;;;5110569;28;20249;-70
2021/05/07 02:52:18;;;;;;;5.32;4.75;;;6.20;99.90;;;;;;5109709;28;20202;-71
2021/05/07 02:54:46;;;;;;;3.65;3.30;;;6.10;99.90;;;;;;5111584;28;20187;-71
2021/05/07 02:57:14;;;;;;;6.05;4.35;;;6.00;99.90;;;;;;5111628;28;20287;-70
2021/05/07 02:59:42;;;;;;;5.22;4.57;;;6.00;99.90;;;;;;5110771;28;20643;-70
2021/05/07 03:02:10;;;;;;;6.65;4.18;;;6.00;99.90;;;;;;5111747;28;20765;-70
2021/05/07 03:04:37;;;;;;;5.05;3.75;;;6.00;99.90;;;;;;5111680;28;20221;-70
2021/05/07 03:07:05;;;;;;;5.35;4.05;;;6.00;99.90;;;;;;5109614;28;20187;-71
2021/05/07 03:09:32;;;;;;;5.47;3.72;;;6.10;99.90;;;;;;5111631;28;20654;-70
2021/05/07 03:11:59;;;;;;;5.38;3.83;;;6.10;99.90;;;;;;5110064;28;20293;-70
2021/05/07 03:14:27;;;;;;;4.38;3.28;;;6.20;99.90;;;;;;5111487;28;20224;-70
2021/05/07 03:16:54;;;;;;;7.28;4.70;;;6.30;99.90;;;;;;5111528;28;20674;-70
2021/05/07 03:19:22;;;;;;;5.35;3.63;;;6.30;99.90;;;;;;5111211;28;20214;-71
2021/05/07 03:21:49;;;;;;;4.30;3.65;;;6.40;99.90;;;;;;5111222;28;20206;-72
2021/05/07 03:24:16;;;;;;;4.20;3.85;;;6.30;99.90;;;;;;5111859;28;20233;-72
2021/05/07 03:26:43;;;;;;;5.78;4.43;;;6.30;99.90;;;;;;5112375;28;20191;-70
2021/05/07 03:29:10;;;;;;;8.20;4.63;;;6.40;99.90;;;;;;5110785;28;20198;-70
2021/05/07 03:31:38;;;;;;;9.63;5.38;;;6.40;99.90;;;;;;5112579;28;20333;-71
2021/05/07 03:34:06;;;;;;;6.75;5.28;;;6.30;99.90;;;;;;5111686;28;20277;-72
2021/05/07 03:36:33;;;;;;;5.75;5.18;;;6.40;99.90;;;;;;5112521;28;20211;-72
2021/05/07 03:39:00;;;;;;;6.60;5.35;;;6.40;99.90;;;;;;5111131;28;20184;-71
2021/05/07 03:41:28;;;;;;;7.05;5.40;;;6.50;99.90;;;;;;5109817;28;20201;-70
2021/05/07 03:43:55;;;;;;;11.68;4.93;;;6.60;99.90;;;;;;5111273;28;20260;-71
2021/05/07 03:46:22;;;;;;;6.57;4.82;;;6.60;99.90;;;;;;5111453;28;20580;-70
2021/05/07 03:48:50;;;;;;;7.28;4.30;;;6.50;99.90;;;;;;5109697;28;20724;-70
2021/05/07 03:51:17;;;;;;;7.00;5.18;;;6.50;99.90;;;;;;5111074;28;20192;-71
2021/05/07 03:53:45;;;;;;;4.90;4.43;;;6.60;99.90;;;;;;5109225;28;20197;-70
2021/05/07 03:56:12;;;;;;;10.40;4.47;;;6.60;99.90;;;;;;5111077;28;20171;-71
2021/05/07 03:58:39;;;;;;;10.48;5.72;;;6.60;99.90;;;;;;5110965;28;20195;-71
2021/05/07 04:01:08;;;;;;;10.88;5.68;;;6.70;99.90;;;;;;5111449;28;20193;-72
2021/05/07 04:06:26;;;;;;;5.85;4.05;;;6.70;99.90;;;;;;5111516;28;20591;-71
2021/05/07 04:09:01;;;;;;;5.72;4.47;;;6.70;99.90;;;;;;5112681;28;20182;-70
2021/05/07 04:11:31;;;;;;;5.18;3.80;;;6.70;99.90;;;;;;5110799;28;20236;-71
2021/05/07 04:13:59;;;;;;;5.18;3.58;;;6.70;99.90;;;;;;5110620;28;20592;-71
2021/05/07 04:16:26;;;;;;;6.68;5.10;;;6.70;99.90;;;;;;5111265;28;20210;-70
2021/05/07 04:18:54;;;;;;;8.73;5.55;;;6.70;99.90;;;;;;5113738;28;20689;-70
2021/05/07 04:21:23;;;;;;;6.03;5.13;;;6.70;99.90;;;;;;5114747;28;20171;-71
2021/05/07 04:23:51;;;;;;;5.55;4.15;;;6.70;99.90;;;;;;5114507;28;20257;-70
2021/05/07 04:26:18;;;;;;;5.75;4.05;;;6.70;99.90;;;;;;5115016;28;20197;-70
2021/05/07 04:28:46;;;;;;;4.15;3.35;;;6.70;99.90;;;;;;5115129;28;20636;-70
2021/05/07 04:31:13;;;;;;;4.85;3.90;;;6.70;99.90;;;;;;5114550;28;20183;-70
2021/05/07 04:33:40;;;;;;;7.28;4.55;;;6.70;99.90;;;;;;5114508;28;20261;-71
2021/05/07 04:36:08;;;;;;;4.53;3.78;;;6.80;99.90;;;;;;5113340;28;20290;-72
2021/05/07 04:38:37;;;;;;;3.72;3.40;;;6.80;99.90;;;;;;5115437;28;20266;-70
2021/05/07 04:41:05;;;;;;;5.03;4.30;;;6.90;99.90;;;;;;5115794;28;20187;-70
2021/05/07 04:43:32;;;;;;;3.35;3.05;;;6.90;99.90;;;;;;5113749;28;20218;-71
2021/05/07 04:45:59;;;;;;;4.28;3.13;;;6.90;99.90;;;;;;5114363;28;20289;-70
2021/05/07 04:48:27;;;;;;;3.95;3.40;;;6.90;99.90;;;;;;5113564;28;20217;-72
2021/05/07 04:50:55;;;;;;;7.00;3.88;;;6.90;99.90;;;;;;5114429;28;20662;-70
2021/05/07 04:53:22;;;;;;;7.40;3.33;;;6.90;99.90;;;;;;5114057;28;20558;-70
2021/05/07 04:55:50;;;;;;;5.22;3.92;;;6.90;99.90;;;;;;5114404;27;20672;-70
2021/05/07 04:58:17;;;;;;;3.85;3.15;;;6.80;99.90;;;;;;5114238;28;20733;-69
2021/05/07 05:00:44;;;;;;;4.82;2.90;;;6.80;99.90;;;;;;5112491;28;20194;-69
2021/05/07 05:03:18;;;;;;;4.28;2.90;;;6.80;99.90;;;;;;5113863;28;20565;-71
2021/05/07 05:05:45;;;;;;;3.22;2.70;;;6.80;99.90;;;;;;5113800;28;20584;-71
2021/05/07 05:08:12;;;;;;;4.47;4.07;;;6.90;99.90;;;;;;5112631;28;20609;-71
2021/05/07 05:10:40;;;;;;;3.40;2.60;;;6.90;99.90;;;;;;5114102;28;20273;-71
2021/05/07 05:13:08;;;;;;;3.80;3.50;;;6.80;99.90;;;;;;5113885;28;20210;-71
2021/05/07 05:15:35;;;;;;;3.33;2.90;;;6.70;99.90;;;;;;5114117;28;20179;-71
2021/05/07 05:18:02;;;;;;;3.60;3.28;;;6.70;99.90;;;;;;5114963;28;20263;-70
2021/05/07 05:20:29;;;;;;;3.47;2.40;;;6.80;99.90;;;;;;5114831;28;20228;-70
2021/05/07 05:22:57;;;;;;;2.67;2.47;;;6.70;99.90;;;;;;5114995;28;20221;-71
2021/05/07 05:25:24;;;;;;;2.88;2.33;;;6.80;99.90;;;;;;5115114;28;20209;-71
2021/05/07 05:27:51;;;;;;;3.15;2.40;;;6.80;99.90;;;;;;5114811;28;20225;-71
2021/05/07 05:30:21;;;;;;;3.38;2.67;;;6.90;99.90;;;;;;5113575;27;20170;-71
2021/05/07 05:32:49;;;;;;;3.05;2.38;;;6.90;99.90;;;;;;5113798;28;20293;-70
2021/05/07 05:35:17;;;;;;;3.20;2.00;;;6.90;99.90;;;;;;5114394;28;20187;-71
2021/05/07 05:37:45;;;;;;;2.15;1.90;;;6.90;99.90;;;;;;5113013;28;20194;-70
2021/05/07 05:40:14;;;;;;;3.22;2.92;;;7.00;99.90;;;;;;5114034;28;20201;-71
2021/05/07 05:42:41;;;;;;;4.20;1.85;;;6.90;99.90;;;;;;5113696;28;20210;-71
2021/05/07 05:45:10;;;;;;;2.28;1.92;;;7.00;99.90;;;;;;5112429;28;20550;-71
2021/05/07 05:47:38;;;;;;;2.63;2.13;;;6.90;99.90;;;;;;5114788;28;20199;-72
2021/05/07 05:50:08;;;;;;;4.15;3.08;;;6.80;99.90;;;;;;5113954;28;20270;-73
2021/05/07 05:52:40;;;;;;;3.95;2.30;;;6.70;99.90;;;;;;5113316;28;20301;-72
2021/05/07 05:55:08;;;;;;;2.38;2.17;;;6.70;99.90;;;;;;5113423;28;20266;-71
2021/05/07 05:57:35;;;;;;;2.40;2.17;;;6.60;99.90;;;;;;5111955;28;20213;-70
2021/05/07 06:00:04;;;;;;;2.45;2.15;;;6.70;99.90;;;;;;5114144;28;20514;-73
2021/05/07 06:02:38;;;;;;;2.38;2.17;;;6.80;99.90;;;;;;5113934;28;20703;-73
2021/05/07 06:05:07;;;;;;;5.45;3.60;;;7.00;99.90;;;;;;5113081;28;20203;-72
2021/05/07 06:07:35;;;;;;;4.05;2.83;;;7.10;99.90;;;;;;5113221;28;20174;-71
2021/05/07 06:10:03;;;;;;;11.77;4.22;;;7.00;99.90;;;;;;5113047;28;20179;-71
2021/05/07 06:12:30;;;;;;;3.35;2.80;;;7.00;99.90;;;;;;5111389;28;20207;-71
2021/05/07 06:14:57;;;;;;;2.42;1.92;;;6.90;99.90;;;;;;5110937;28;20674;-72
2021/05/07 06:17:24;;;;;;;3.53;2.38;;;6.90;99.90;;;;;;5112656;28;20189;-70
2021/05/07 06:19:52;;;;;;;13.80;12.60;;;6.80;99.90;;;;;;5111570;28;20178;-71
2021/05/07 06:22:20;;;;;;;9.68;8.77;;;6.80;99.90;;;;;;5112094;28;20206;-71
2021/05/07 06:24:48;;;;;;;3.60;2.20;;;6.90;99.90;;;;;;5112094;28;20195;-71
2021/05/07 06:27:15;;;;;;;1.70;1.55;;;7.10;99.90;;;;;;5112256;28;20186;-71
2021/05/07 06:29:42;;;;;;;2.22;1.80;;;7.10;99.90;;;;;;5112535;28;20178;-71
2021/05/07 06:32:10;;;;;;;3.38;1.90;;;6.80;99.90;;;;;;5112163;28;20207;-70
2021/05/07 06:34:40;;;;;;;1.45;1.10;;;6.60;99.90;;;;;;5112072;28;20171;-71
2021/05/07 06:37:08;;;;;;;2.30;1.90;;;6.60;99.90;;;;;;5112190;28;20189;-71
2021/05/07 06:39:36;;;;;;;3.80;2.53;;;6.50;99.90;;;;;;5112008;28;20190;-70
2021/05/07 06:42:05;;;;;;;3.10;2.17;;;6.40;99.90;;;;;;5128397;27;20275;-72
2021/05/07 06:44:32;;;;;;;2.58;1.58;;;6.50;99.90;;;;;;5133063;27;20200;-70
2021/05/07 06:47:01;;;;;;;2.58;1.85;;;6.60;99.90;;;;;;5132611;27;20186;-71
2021/05/07 06:49:29;;;;;;;2.67;1.85;;;6.50;99.90;;;;;;5132707;27;20186;-70
2021/05/07 06:51:56;;;;;;;2.28;1.50;;;6.30;99.90;;;;;;5131889;27;20205;-70
2021/05/07 06:54:26;;;;;;;2.75;1.65;;;6.20;99.90;;;;;;5132338;27;20227;-70
2021/05/07 06:56:55;;;;;;;1.83;1.60;;;6.10;99.90;;;;;;5248778;22;20203;-69
2021/05/07 06:59:22;;;;;;;2.17;1.33;;;6.00;99.90;;;;;;5072261;28;20168;-68
2021/05/07 07:01:50;;;;;;;2.28;1.80;;;5.90;99.90;;;;;;5076086;28;20203;-69
2021/05/07 07:04:17;;;;;;;1.65;1.52;;;5.90;99.90;;;;;;5092263;28;20179;-67
2021/05/07 07:06:45;;;;;;;1.70;1.50;;;5.90;99.90;;;;;;5092162;28;20207;-67
2021/05/07 07:09:12;;;;;;;3.40;1.30;;;5.80;99.90;;;;;;5092367;28;20187;-68
2021/05/07 07:11:53;;;;;;;3.13;1.08;;;5.90;99.90;;;;;;5091958;28;20203;-67
2021/05/07 07:14:20;;;;;;;2.13;1.40;;;5.90;99.90;;;;;;5092206;28;20179;-67
2021/05/07 07:16:47;;;;;;;1.73;1.27;;;6.00;99.90;;;;;;5092116;28;20598;-67
2021/05/07 07:19:15;;;;;;;9.70;2.10;;;6.00;99.90;;;;;;5074048;28;20680;-67
2021/05/07 07:22:01;;;;;;;1.88;1.45;;;6.10;99.90;;;;;;5090980;28;20239;-67
2021/05/07 07:24:29;;;;;;;1.92;1.20;;;6.00;99.90;;;;;;5091429;28;20176;-68
2021/05/07 07:26:57;;;;;;;1.67;1.20;;;6.00;99.90;;;;;;5091229;28;20290;-69
2021/05/07 07:29:24;;;;;;;2.05;1.48;;;6.00;99.90;;;;;;5091986;28;20504;-67
2021/05/07 07:31:52;;;;;;;3.55;1.42;;;6.00;99.90;;;;;;5091271;28;20199;-68
2021/05/07 07:34:20;;;;;;;1.70;1.55;;;5.90;99.90;;;;;;5091311;28;20184;-68
2021/05/07 07:36:49;;;;;;;1.60;1.27;;;5.80;99.90;;;;;;5091211;28;20289;-67
2021/05/07 07:39:18;;;;;;;2.45;2.15;;;5.70;99.90;;;;;;5072830;28;20278;-67
2021/05/07 07:41:47;;;;;;;1.98;1.30;;;5.70;99.90;;;;;;5091203;28;20236;-67
2021/05/07 07:44:15;;;;;;;12.35;11.13;;;5.60;99.90;;;;;;5112614;28;20183;-67
2021/05/07 07:46:45;;;;;;;4.82;4.28;;;5.40;99.90;;;;;;5111342;28;20187;-67
2021/05/07 07:49:13;;;;;;;5.68;2.78;;;5.30;99.90;;;;;;5096182;28;20187;-67
2021/05/07 07:51:40;;;;;;;2.28;2.03;;;5.20;99.90;;;;;;5091483;28;20298;-67
2021/05/07 07:54:08;;;;;;;4.13;3.35;;;5.10;99.90;;;;;;5090791;28;20218;-67
2021/05/07 07:56:36;;;;;;;2.22;1.65;;;5.10;99.90;;;;;;5090688;28;20186;-67
2021/05/07 07:59:03;;;;;;;2.38;1.85;;;5.00;99.90;;;;;;5090696;28;20663;-68
2021/05/07 08:01:32;;;;;;;2.13;1.92;;;5.10;99.90;;;;;;5091157;28;20175;-67
2021/05/07 08:04:01;;;;;;;2.78;2.13;;;5.00;99.90;;;;;;5090322;28;20199;-66
2021/05/07 08:06:28;;;;;;;5.35;2.05;;;5.00;99.90;;;;;;5090728;28;20207;-67
2021/05/07 08:08:56;;;;;;;7.40;2.72;;;4.80;99.90;;;;;;5091473;28;20758;-68
2021/05/07 08:11:23;;;;;;;2.50;1.63;;;4.80;99.90;;;;;;5091301;28;20225;-67
2021/05/07 08:13:50;;;;;;;5.53;2.97;;;4.70;99.90;;;;;;5091436;28;20216;-67
2021/05/07 08:16:17;;;;;;;2.83;1.70;;;4.60;99.90;;;;;;5073487;28;20194;-67
2021/05/07 08:18:45;;;;;;;4.63;2.17;;;4.50;99.90;;;;;;5092348;28;20179;-67
2021/05/07 08:21:13;;;;;;;17.25;4.90;;;4.40;99.90;;;;;;5091499;28;20700;-67
2021/05/07 08:23:40;;;;;;;1.83;1.67;;;4.30;99.90;;;;;;5091054;28;20207;-68
2021/05/07 08:26:08;;;;;;;1.60;1.50;;;4.30;99.90;;;;;;5090697;28;20213;-68
2021/05/07 08:28:35;;;;;;;1.75;1.45;;;4.20;99.90;;;;;;5090826;28;20191;-68
2021/05/07 08:31:02;;;;;;;4.50;2.00;;;4.10;99.90;;;;;;5091026;28;20415;-68
2021/05/07 08:33:30;;;;;;;6.97;2.30;;;4.00;99.90;;;;;;5091532;28;20302;-68
2021/05/07 08:35:58;;;;;;;3.92;2.40;;;4.00;99.90;;;;;;5091542;28;20225;-68
2021/05/07 08:38:25;;;;;;;1.95;1.70;;;4.00;99.90;;;;;;5091022;28;20402;-69
2021/05/07 08:40:52;;;;;;;3.85;2.03;;;3.90;99.90;;;;;;5099704;28;20183;-68
2021/05/07 08:43:19;;;;;;;3.03;1.98;;;3.90;99.90;;;;;;5090869;28;20215;-67
2021/05/07 08:45:46;;;;;;;1.90;1.50;;;3.80;99.90;;;;;;5090835;28;20229;-68
2021/05/07 08:48:14;;;;;;;7.68;1.95;;;3.90;99.90;;;;;;5090867;28;20632;-68
2021/05/07 08:50:48;;;;;;;2.83;2.35;;;3.90;99.90;;;;;;5091332;28;20172;-68
2021/05/07 08:53:17;;;;;;;2.95;1.75;;;3.80;99.90;;;;;;5090693;28;20221;-67
2021/05/07 08:55:45;;;;;;;2.40;1.85;;;3.70;99.90;;;;;;5090991;28;20658;-67
2021/05/07 08:58:12;;;;;;;2.13;1.92;;;3.60;99.90;;;;;;5090467;28;20196;-67
2021/05/07 09:00:40;;;;;;;4.82;2.97;;;3.50;99.90;;;;;;5090571;28;20412;-68
2021/05/07 09:03:08;;;;;;;4.07;1.88;;;3.40;99.90;;;;;;5090630;28;20212;-68
2021/05/07 09:05:37;;;;;;;9.82;8.90;;;3.30;99.90;;;;;;5092926;28;20243;-68
2021/05/07 09:08:06;;;;;;;4.18;3.75;;;3.10;99.90;;;;;;5092852;28;20191;-67
2021/05/07 09:10:36;;;;;;;4.30;3.67;;;3.10;99.90;;;;;;5095042;28;20190;-68
2021/05/07 09:13:04;;;;;;;3.25;2.70;;;3.00;99.90;;;;;;5095203;28;20199;-68
2021/05/07 09:15:43;;;;;;;1.88;1.65;;;3.00;99.90;;;;;;5095516;28;20183;-70
2021/05/07 09:18:12;;;;;;;3.05;2.72;;;3.10;99.90;;;;;;5094770;28;20536;-67
2021/05/07 09:20:40;;;;;;;3.03;2.35;;;3.10;99.90;;;;;;5075790;28;20671;-68
2021/05/07 09:23:12;;;;;;;1.95;1.85;;;3.10;99.90;;;;;;5094615;28;20222;-68
2021/05/07 09:25:41;;;;;;;2.33;1.23;;;3.00;99.90;;;;;;5094015;28;20200;-68
2021/05/07 09:28:10;;;;;;;2.03;1.33;;;3.00;99.90;;;;;;5094201;28;20180;-67
2021/05/07 09:30:38;;;;;;;2.42;2.22;;;3.00;99.90;;;;;;5093510;28;20289;-68
2021/05/07 09:33:07;;;;;;;2.08;1.55;;;3.10;99.90;;;;;;5093725;28;20246;-68
2021/05/07 09:35:35;;;;;;;2.20;1.92;;;3.20;99.90;;;;;;5093871;28;20174;-66
2021/05/07 09:38:05;;;;;;;2.25;1.45;;;3.30;99.90;;;;;;5075385;28;20555;-68
2021/05/07 09:40:33;;;;;;;1.50;1.40;;;3.40;99.90;;;;;;5093795;28;20717;-68
2021/05/07 09:43:09;;;;;;;1.90;1.63;;;3.60;99.90;;;;;;5093893;28;20210;-68
2021/05/07 09:45:37;;;;;;;2.95;2.72;;;3.70;99.90;;;;;;5094355;28;20203;-67
2021/05/07 09:48:16;;;;;;;1.85;1.60;;;3.60;99.90;;;;;;5094092;28;20303;-67
2021/05/07 09:50:44;;;;;;;1.90;1.63;;;3.60;99.90;;;;;;5093631;28;20171;-68
2021/05/07 09:53:13;;;;;;;2.60;2.00;;;3.70;99.90;;;;;;5093711;28;20256;-68
2021/05/07 09:55:41;;;;;;;1.90;1.70;;;3.90;99.90;;;;;;5094162;28;20210;-67
2021/05/07 09:58:10;;;;;;;2.25;1.17;;;3.90;99.90;;;;;;5093311;28;20256;-68
2021/05/07 10:00:38;;;;;;;1.83;1.55;;;4.10;99.90;;;;;;5094230;28;20565;-67
2021/05/07 10:03:06;;;;;;;1.40;0.70;;;4.40;99.90;;;;;;5076399;28;20254;-68
2021/05/07 10:05:33;;;;;;;1.08;0.85;;;4.50;99.90;;;;;;5094095;28;20223;-68
2021/05/07 10:08:00;;;;;;;1.77;1.10;;;4.40;99.90;;;;;;5094065;28;20178;-68
2021/05/07 10:10:30;;;;;;;2.20;0.90;;;4.50;99.90;;;;;;5093977;28;20194;-69
2021/05/07 10:13:00;;;;;;;1.92;1.52;;;4.40;99.90;;;;;;5076040;28;20702;-68
2021/05/07 10:15:34;;;;;;;1.27;1.17;;;4.40;99.90;;;;;;5075743;28;20206;-69
2021/05/07 10:18:04;;;;;;;0.80;0.60;;;4.20;99.90;;;;;;5076144;28;20248;-68
2021/05/07 10:20:35;;;;;;;1.30;1.00;;;4.30;99.90;;;;;;5093985;28;20171;-68
2021/05/07 10:23:16;;;;;;;1.10;0.80;;;4.30;99.90;;;;;;5093791;28;20253;-68
2021/05/07 10:25:56;;;;;;;1.95;1.05;;;4.60;99.90;;;;;;5071563;28;20232;-66
2021/05/07 10:28:24;;;;;;;2.20;1.55;;;4.70;99.90;;;;;;5108292;28;20179;-68
2021/05/07 10:31:02;;;;;;;2.05;1.10;;;5.00;99.90;;;;;;5113141;28;20179;-67
2021/05/07 10:33:30;;;;;;;1.65;1.42;;;5.50;99.90;;;;;;5115594;28;20214;-67
2021/05/07 10:35:57;;;;;;;1.60;1.00;;;6.30;99.90;;;;;;5094948;28;20183;-68
2021/05/07 10:38:26;;;;;;;1.75;1.20;;;7.00;99.90;;;;;;5112968;28;20214;-68
2021/05/07 10:41:05;;;;;;;1.30;0.93;;;7.50;99.90;;;;;;5113213;28;20167;-67
2021/05/07 10:43:37;;;;;;;1.23;1.13;;;7.70;99.90;;;;;;5111948;28;20242;-67
2021/05/07 10:46:06;;;;;;;4.50;1.98;;;8.00;99.90;;;;;;5094643;28;20302;-67
2021/05/07 10:48:33;;;;;;;1.63;1.30;;;8.30;99.90;;;;;;5112979;28;20655;-68
2021/05/07 10:51:13;;;;;;;1.20;1.10;;;8.50;99.90;;;;;;5113517;28;20171;-68
2021/05/07 10:53:40;;;;;;;1.20;0.90;;;8.40;99.90;;;;;;5112923;28;20335;-68
2021/05/07 10:56:15;;;;;;;1.30;1.00;;;8.30;99.90;;;;;;5094555;28;20236;-67
2021/05/07 10:58:42;;;;;;;1.55;1.40;;;8.40;1.00;;;;;;5112520;28;20190;-68
2021/05/07 11:01:25;;;;;;;1.65;0.90;;;8.50;99.90;;;;;;5094556;28;20211;-67
2021/05/07 11:04:04;;;;;;;1.63;1.50;;;8.30;99.90;;;;;;5113446;28;20209;-68
2021/05/07 11:06:33;;;;;;;3.55;1.60;;;8.30;99.90;;;;;;5102970;28;20207;-69
2021/05/07 11:09:17;;;;;;;1.73;1.27;;;8.30;99.90;;;;;;5083528;28;20555;-68
2021/05/07 11:11:44;;;;;;;2.38;1.20;;;8.30;99.90;;;;;;5093946;28;20236;-69
2021/05/07 11:14:13;;;;;;;1.30;1.10;;;8.20;99.90;;;;;;5115069;28;20658;-67
2021/05/07 11:16:43;;;;;;;1.55;1.25;;;7.90;99.90;;;;;;5073884;28;20180;-69
2021/05/07 11:19:24;;;;;;;2.38;1.35;;;7.90;99.90;;;;;;5073686;28;20214;-69
2021/05/07 11:21:54;;;;;;;2.70;2.30;;;7.90;99.90;;;;;;5072635;28;20207;-67
2021/05/07 11:24:26;;;;;;;3.22;1.67;;;8.10;99.90;;;;;;5072055;28;20188;-70
2021/05/07 11:26:54;;;;;;;3.45;1.80;;;8.10;99.90;;;;;;5071866;28;20196;-69
2021/05/07 11:29:32;;;;;;;2.22;1.20;;;8.30;99.90;;;;;;5071583;28;20249;-69
2021/05/07 11:32:11;;;;;;;2.40;1.38;;;8.30;99.90;;;;;;5071398;28;20257;-68
2021/05/07 11:34:39;;;;;;;1.35;1.20;;;8.20;99.90;;;;;;5072133;28;20172;-68
2021/05/07 11:37:06;;;;;;;2.15;1.40;;;8.40;99.90;;;;;;5076659;28;20180;-69
2021/05/07 11:39:34;;;;;;;3.00;1.30;;;8.70;99.90;;;;;;5091980;28;20203;-69
2021/05/07 11:42:01;;;;;;;5.00;2.20;;;8.70;1.00;;;;;;5091590;28;20199;-69
2021/05/07 11:44:28;;;;;;;1.88;1.50;;;9.10;1.00;;;;;;5073637;28;20187;-69
2021/05/07 11:47:05;;;;;;;2.00;1.02;;;8.80;95.00;;;;;;5091749;28;20561;-70
2021/05/07 11:49:37;;;;;;;3.20;1.90;;;8.50;99.90;;;;;;5073646;28;20184;-69
2021/05/07 11:52:06;;;;;;;1.33;1.23;;;8.80;99.90;;;;;;5091561;28;20211;-69
2021/05/07 11:54:41;;;;;;;4.78;1.80;;;8.90;99.90;;;;;;5073346;28;20187;-69
2021/05/07 11:57:09;;;;;;;3.47;1.63;;;8.90;99.90;;;;;;5091248;28;20190;-69
2021/05/07 11:59:39;;;;;;;5.82;1.65;;;9.20;99.90;;;;;;5090885;28;20545;-68
2021/05/07 12:02:07;;;;;;;2.05;1.50;;;9.40;99.90;;;;;;5090735;28;20753;-67
2021/05/07 12:04:45;;;;;;;3.80;1.42;;;9.70;99.90;;;;;;5090720;28;20278;-68
2021/05/07 12:07:27;;;;;;;1.30;1.13;;;9.80;47.40;;;;;;5090840;28;20218;-68
2021/05/07 12:09:57;;;;;;;2.55;1.30;;;10.00;39.80;;;;;;5090597;28;20187;-68
2021/05/07 12:12:26;;;;;;;3.78;1.55;;;10.00;61.60;;;;;;5090394;28;20214;-67
2021/05/07 12:15:06;;;;;;;2.75;1.85;;;10.00;99.90;;;;;;5090228;28;20175;-69
2021/05/07 12:17:42;;;;;;;4.93;1.73;;;9.80;99.90;;;;;;5090759;28;20601;-69
2021/05/07 12:20:12;;;;;;;3.17;1.20;;;9.20;99.90;;;;;;5090483;28;20172;-69
2021/05/07 12:22:40;;;;;;;2.47;1.10;;;8.60;99.90;;;;;;5090641;28;20298;-68
2021/05/07 12:25:10;;;;;;;1.20;1.10;;;7.90;99.90;;;;;;5090869;28;20187;-69
2021/05/07 12:27:42;;;;;;;1.65;1.23;;;7.30;99.90;;;;;;5091474;28;20182;-68
2021/05/07 12:30:21;;;;;;;1.35;1.20;;;7.10;99.90;;;;;;5073464;28;20187;-66
2021/05/07 12:32:54;;;;;;;1.92;1.58;;;7.60;99.90;;;;;;5072948;28;20234;-68
2021/05/07 12:35:22;;;;;;;1.45;0.90;;;7.80;99.90;;;;;;5090935;28;20218;-68
2021/05/07 12:37:49;;;;;;;1.50;1.08;;;8.30;99.90;;;;;;5091238;28;20191;-67
2021/05/07 12:40:17;;;;;;;2.95;1.60;;;8.60;99.90;;;;;;5074999;28;20191;-68
2021/05/07 12:42:44;;;;;;;3.00;1.38;;;8.80;99.90;;;;;;5094250;28;20219;-68
2021/05/07 12:45:12;;;;;;;1.45;1.33;;;9.00;99.90;;;;;;5094310;28;20252;-67
2021/05/07 12:47:39;;;;;;;1.80;1.20;;;9.40;99.90;;;;;;5094915;28;20194;-67
2021/05/07 12:50:07;;;;;;;2.45;1.77;;;9.50;99.90;;;;;;5094512;28;20194;-67
2021/05/07 12:52:38;;;;;;;21.38;13.73;;;9.50;99.90;;;;;;5094187;28;20211;-68
2021/05/07 12:55:06;;;;;;;1.65;1.55;;;9.60;99.90;;;;;;5094267;28;20199;-70
2021/05/07 12:57:33;;;;;;;2.10;1.63;;;9.80;99.90;;;;;;5076651;22;20242;-72
2021/05/07 13:00:00;;;;;;;2.05;1.15;;;9.90;99.90;;;;;;4980311;28;20191;-71
2021/05/07 13:02:27;;;;;;;2.10;1.23;;;9.80;99.90;;;;;;4991446;28;20258;-71
2021/05/07 13:04:54;;;;;;;1.63;1.20;;;9.90;99.90;;;;;;4984792;28;20206;-70
2021/05/07 13:07:22;;;;;;;2.53;1.30;;;9.90;99.90;;;;;;4995088;28;20208;-73
2021/05/07 13:09:51;;;;;;;1.52;1.33;;;9.90;99.90;;;;;;5080756;28;20287;-71